Time,TemperatureF,DewpointF,PressureIn,WindDirection,WindDirectionDegrees,WindSpeedMPH,WindSpeedGustMPH,Humidity,HourlyPrecipIn,Conditions,Clouds,dailyrainin,SoftwareType,DateUTC
2013-01-15 00:00:00,7.1,4.8,30.40,WNW,292,0.0,0.0,90,0.00,,,0.00,Wunderground v.1.15,2013-01-15 06:00:00,
2013-01-15 00:10:00,7.1,4.8,30.40,WNW,292,0.0,0.0,90,0.00,,,0.00,Wunderground v.1.15,2013-01-15 06:10:00,
2013-01-15 00:20:00,7.1,4.5,30.40,WNW,292,0.0,0.0,89,0.00,,,0.00,Wunderground v.1.15,2013-01-15 06:20:00,
2013-01-15 00:30:00,7.1,4.8,30.40,WNW,292,0.0,0.0,90,0.00,,,0.00,Wunderground v.1.15,2013-01-15 06:30:00,
2013-01-15 00:40:00,6.9,4.3,30.40,WNW,292,0.0,0.0,89,0.00,,,0.00,Wunderground v.1.15,2013-01-15 06:40:00,
2013-01-15 00:50:00,6.6,4.0,30.40,WNW,292,0.0,0.0,89,0.00,,,0.00,Wunderground v.1.15,2013-01-15 06:50:00,
2013-01-15 00:55:00,6.4,3.9,30.40,WNW,292,0.0,0.0,89,0.00,,,0.00,Wunderground v.1.15,2013-01-15 06:55:00,
2013-01-15 01:00:00,6.2,3.7,30.40,WNW,292,0.0,0.0,89,0.00,,,0.00,Wunderground v.1.15,2013-01-15 07:00:00,
2013-01-15 01:10:00,6.0,3.5,30.40,WNW,292,0.0,0.0,89,0.00,,,0.00,Wunderground v.1.15,2013-01-15 07:10:00,
2013-01-15 01:15:00,5.9,3.4,30.41,WNW,292,0.0,0.0,89,0.00,,,0.00,Wunderground v.1.15,2013-01-15 07:15:00,
2013-01-15 01:25:00,5.8,3.3,30.41,WNW,292,0.0,0.0,89,0.00,,,0.00,Wunderground v.1.15,2013-01-15 07:25:00,
2013-01-15 01:35:00,5.9,3.6,30.41,WNW,292,0.0,0.0,90,0.00,,,0.00,Wunderground v.1.15,2013-01-15 07:35:00,
2013-01-15 01:45:00,6.1,3.8,30.41,WNW,292,0.0,0.0,90,0.00,,,0.00,Wunderground v.1.15,2013-01-15 07:45:00,
2013-01-15 01:55:00,6.4,4.1,30.41,WNW,292,0.0,0.0,90,0.00,,,0.00,Wunderground v.1.15,2013-01-15 07:55:00,
2013-01-15 02:00:00,6.7,4.6,30.40,WNW,292,0.0,0.0,91,0.00,,,0.00,Wunderground v.1.15,2013-01-15 08:00:00,
2013-01-15 02:10:00,6.9,4.6,30.40,WNW,292,0.0,0.0,90,0.00,,,0.00,Wunderground v.1.15,2013-01-15 08:10:00,
2013-01-15 02:15:00,6.9,4.6,30.41,WNW,292,0.0,0.0,90,0.00,,,0.00,Wunderground v.1.15,2013-01-15 08:15:00,
2013-01-15 02:25:00,7.0,4.7,30.41,WNW,292,0.0,0.0,90,0.00,,,0.00,Wunderground v.1.15,2013-01-15 08:25:00,
2013-01-15 02:35:00,6.9,4.3,30.40,WNW,292,0.0,0.0,89,0.00,,,0.00,Wunderground v.1.15,2013-01-15 08:35:00,
2013-01-15 02:45:00,6.7,4.1,30.40,WNW,292,0.0,0.0,89,0.00,,,0.00,Wunderground v.1.15,2013-01-15 08:45:00,
2013-01-15 02:50:00,6.7,4.1,30.40,WNW,292,0.0,0.0,89,0.00,,,0.00,Wunderground v.1.15,2013-01-15 08:50:00,
2013-01-15 03:00:00,6.8,4.5,30.39,WNW,292,0.0,0.0,90,0.00,,,0.00,Wunderground v.1.15,2013-01-15 09:00:00,
2013-01-15 03:10:00,7.0,4.7,30.38,WNW,292,0.0,0.0,90,0.00,,,0.00,Wunderground v.1.15,2013-01-15 09:10:00,
2013-01-15 03:20:00,7.2,4.9,30.38,WNW,292,0.0,0.0,90,0.00,,,0.00,Wunderground v.1.15,2013-01-15 09:20:00,
2013-01-15 03:30:00,7.2,4.6,30.38,WNW,292,0.0,0.0,89,0.00,,,0.00,Wunderground v.1.15,2013-01-15 09:30:00,
2013-01-15 03:35:00,7.2,4.9,30.37,WNW,292,0.0,0.0,90,0.00,,,0.00,Wunderground v.1.15,2013-01-15 09:35:00,
2013-01-15 03:45:00,7.1,4.5,30.37,WNW,292,0.0,1.0,89,0.00,,,0.00,Wunderground v.1.15,2013-01-15 09:45:00,
2013-01-15 03:55:00,7.1,4.8,30.37,WNW,292,0.0,0.0,90,0.00,,,0.00,Wunderground v.1.15,2013-01-15 09:55:00,
2013-01-15 04:00:00,7.2,4.9,30.36,WNW,292,0.0,1.0,90,0.00,,,0.00,Wunderground v.1.15,2013-01-15 10:00:00,
2013-01-15 04:10:00,7.2,4.9,30.36,WNW,292,0.0,1.0,90,0.00,,,0.00,Wunderground v.1.15,2013-01-15 10:10:00,
2013-01-15 04:20:00,7.3,5.0,30.36,SSE,168,0.0,0.0,90,0.00,,,0.00,Wunderground v.1.15,2013-01-15 10:20:00,
2013-01-15 04:30:00,7.5,5.2,30.36,SSE,168,0.0,0.0,90,0.00,,,0.00,Wunderground v.1.15,2013-01-15 10:30:00,
2013-01-15 04:40:00,7.5,4.9,30.35,SSE,168,0.0,1.0,89,0.00,,,0.00,Wunderground v.1.15,2013-01-15 10:40:00,
2013-01-15 04:45:00,7.4,4.8,30.35,SSE,168,0.0,1.0,89,0.00,,,0.00,Wunderground v.1.15,2013-01-15 10:45:00,
2013-01-15 04:55:00,7.4,4.8,30.35,SSE,168,0.0,1.0,89,0.00,,,0.00,Wunderground v.1.15,2013-01-15 10:55:00,
2013-01-15 05:00:00,7.4,4.8,30.35,SSE,168,0.0,0.0,89,0.00,,,0.00,Wunderground v.1.15,2013-01-15 11:00:00,
2013-01-15 05:10:00,7.6,5.3,30.34,SSE,167,0.0,0.0,90,0.00,,,0.00,Wunderground v.1.15,2013-01-15 11:10:00,
2013-01-15 05:20:00,8.3,6.2,30.34,SSE,163,1.0,1.0,91,0.00,,,0.00,Wunderground v.1.15,2013-01-15 11:20:00,
2013-01-15 05:25:00,8.8,6.7,30.34,SSE,165,1.0,2.0,91,0.00,,,0.00,Wunderground v.1.15,2013-01-15 11:25:00,
2013-01-15 05:35:00,9.6,7.5,30.34,South,178,1.0,3.0,91,0.00,,,0.00,Wunderground v.1.15,2013-01-15 11:35:00,
2013-01-15 05:40:00,9.8,7.7,30.34,South,182,1.0,1.0,91,0.00,,,0.00,Wunderground v.1.15,2013-01-15 11:40:00,
2013-01-15 05:50:00,10.2,8.1,30.34,SE,144,1.0,2.0,91,0.00,,,0.00,Wunderground v.1.15,2013-01-15 11:50:00,
2013-01-15 05:55:00,10.3,8.2,30.34,SSE,159,1.0,4.0,91,0.00,,,0.00,Wunderground v.1.15,2013-01-15 11:55:00,
2013-01-15 06:00:00,10.4,8.0,30.34,South,186,2.0,2.0,90,0.00,,,0.00,Wunderground v.1.15,2013-01-15 12:00:00,
2013-01-15 06:10:00,10.4,8.0,30.34,SSW,200,2.0,2.0,90,0.00,,,0.00,Wunderground v.1.15,2013-01-15 12:10:00,
2013-01-15 06:15:00,10.4,8.0,30.34,SSW,197,2.0,2.0,90,0.00,,,0.00,Wunderground v.1.15,2013-01-15 12:15:00,
2013-01-15 06:25:00,10.1,7.8,30.33,South,175,1.0,4.0,90,0.00,,,0.00,Wunderground v.1.15,2013-01-15 12:25:00,
2013-01-15 06:35:00,9.9,7.6,30.33,South,186,1.0,2.0,90,0.00,,,0.00,Wunderground v.1.15,2013-01-15 12:35:00,
2013-01-15 06:40:00,9.9,7.6,30.33,South,181,1.0,1.0,90,0.00,,,0.00,Wunderground v.1.15,2013-01-15 12:40:00,
2013-01-15 06:50:00,9.9,7.6,30.34,South,171,2.0,2.0,90,0.00,,,0.00,Wunderground v.1.15,2013-01-15 12:50:00,
2013-01-15 07:00:00,9.9,7.6,30.33,SSW,194,1.0,2.0,90,0.00,,,0.00,Wunderground v.1.15,2013-01-15 13:00:00,
2013-01-15 07:10:00,9.9,7.6,30.33,SSW,210,1.0,1.0,90,0.00,,,0.00,Wunderground v.1.15,2013-01-15 13:10:00,
2013-01-15 07:20:00,10.2,7.9,30.33,South,188,2.0,2.0,90,0.00,,,0.00,Wunderground v.1.15,2013-01-15 13:20:00,
2013-01-15 07:30:00,10.3,8.0,30.33,South,186,2.0,2.0,90,0.00,,,0.00,Wunderground v.1.15,2013-01-15 13:30:00,
2013-01-15 07:40:00,10.3,8.0,30.34,SSW,195,1.0,1.0,90,0.00,,,0.00,Wunderground v.1.15,2013-01-15 13:40:00,
2013-01-15 07:50:00,10.6,8.2,30.33,SSW,195,2.0,2.0,90,0.00,,,0.00,Wunderground v.1.15,2013-01-15 13:50:00,
2013-01-15 08:00:00,10.8,8.2,30.33,SSW,196,3.0,3.0,89,0.00,,,0.00,Wunderground v.1.15,2013-01-15 14:00:00,
2013-01-15 08:10:00,11.2,8.6,30.33,SSW,196,3.0,3.0,89,0.00,,,0.00,Wunderground v.1.15,2013-01-15 14:10:00,
2013-01-15 08:20:00,11.3,8.7,30.33,SSW,196,3.0,3.0,89,0.00,,,0.00,Wunderground v.1.15,2013-01-15 14:20:00,
2013-01-15 08:25:00,11.6,9.0,30.33,South,188,2.0,3.0,89,0.00,,,0.00,Wunderground v.1.15,2013-01-15 14:25:00,
2013-01-15 08:35:00,12.3,9.7,30.33,SSW,200,3.0,3.0,89,0.00,,,0.00,Wunderground v.1.15,2013-01-15 14:35:00,
2013-01-15 08:40:00,12.8,9.9,30.33,SSW,198,3.0,3.0,88,0.00,,,0.00,Wunderground v.1.15,2013-01-15 14:40:00,
2013-01-15 08:50:00,13.6,10.7,30.33,South,189,2.0,2.0,88,0.00,,,0.00,Wunderground v.1.15,2013-01-15 14:50:00,
2013-01-15 09:00:00,14.6,11.7,30.32,WSW,240,1.0,4.0,88,0.00,,,0.00,Wunderground v.1.15,2013-01-15 15:00:00,
2013-01-15 09:10:00,15.2,11.8,30.33,SSE,162,3.0,3.0,86,0.00,,,0.00,Wunderground v.1.15,2013-01-15 15:10:00,
2013-01-15 09:15:00,15.3,11.6,30.32,SW,222,3.0,4.0,85,0.00,,,0.00,Wunderground v.1.15,2013-01-15 15:15:00,
2013-01-15 09:25:00,15.4,12.0,30.32,SSW,198,2.0,5.0,86,0.00,,,0.00,Wunderground v.1.15,2013-01-15 15:25:00,
2013-01-15 09:30:00,15.6,11.9,30.32,SSE,167,3.0,3.0,85,0.00,,,0.00,Wunderground v.1.15,2013-01-15 15:30:00,
2013-01-15 09:40:00,16.3,12.3,30.32,SW,221,3.0,4.0,84,0.00,,,0.00,Wunderground v.1.15,2013-01-15 15:40:00,
2013-01-15 09:45:00,16.6,12.6,30.32,SSW,195,3.0,5.0,84,0.00,,,0.00,Wunderground v.1.15,2013-01-15 15:45:00,
2013-01-15 09:55:00,17.5,13.5,30.32,SSW,196,2.0,3.0,84,0.00,,,0.00,Wunderground v.1.15,2013-01-15 15:55:00,
2013-01-15 10:00:00,18.2,14.2,30.32,SSE,167,2.0,2.0,84,0.00,,,0.00,Wunderground v.1.15,2013-01-15 16:00:00,
2013-01-15 10:10:00,19.7,14.8,30.32,SSW,207,4.0,7.0,81,0.00,,,0.00,Wunderground v.1.15,2013-01-15 16:10:00,
2013-01-15 10:20:00,20.6,15.4,30.32,SSW,196,4.0,7.0,80,0.00,,,0.00,Wunderground v.1.15,2013-01-15 16:20:00,
2013-01-15 10:25:00,20.7,15.2,30.32,South,175,4.0,7.0,79,0.00,,,0.00,Wunderground v.1.15,2013-01-15 16:25:00,
2013-01-15 10:35:00,21.1,15.3,30.31,West,268,4.0,10.0,78,0.00,,,0.00,Wunderground v.1.15,2013-01-15 16:35:00,
2013-01-15 10:40:00,21.3,15.2,30.31,WNW,286,4.0,4.0,77,0.00,,,0.00,Wunderground v.1.15,2013-01-15 16:40:00,
2013-01-15 10:50:00,21.8,15.7,30.30,WNW,285,4.0,8.0,77,0.00,,,0.00,Wunderground v.1.15,2013-01-15 16:50:00,
2013-01-15 11:00:00,22.6,16.5,30.30,WSW,252,3.0,5.0,77,0.00,,,0.00,Wunderground v.1.15,2013-01-15 17:00:00,
2013-01-15 11:10:00,23.1,16.7,30.29,WSW,254,3.0,3.0,76,0.00,,,0.00,Wunderground v.1.15,2013-01-15 17:10:00,
2013-01-15 11:20:00,23.8,16.4,30.28,SW,233,3.0,5.0,73,0.00,,,0.00,Wunderground v.1.15,2013-01-15 17:20:00,
2013-01-15 11:25:00,24.0,16.9,30.28,SSW,202,4.0,5.0,74,0.00,,,0.00,Wunderground v.1.15,2013-01-15 17:25:00,
2013-01-15 11:30:00,24.5,17.1,30.28,WSW,258,3.0,6.0,73,0.00,,,0.00,Wunderground v.1.15,2013-01-15 17:30:00,
2013-01-15 11:40:00,25.1,17.3,30.27,SSE,168,4.0,4.0,72,0.00,,,0.00,Wunderground v.1.15,2013-01-15 17:40:00,
2013-01-15 11:50:00,25.8,17.4,30.27,South,178,4.0,4.0,70,0.00,,,0.00,Wunderground v.1.15,2013-01-15 17:50:00,
2013-01-15 12:00:00,26.7,17.9,30.26,SSW,208,4.0,4.0,69,0.00,,,0.00,Wunderground v.1.15,2013-01-15 18:00:00,
2013-01-15 12:10:00,27.1,17.9,30.25,SSW,203,3.0,3.0,68,0.00,,,0.00,Wunderground v.1.15,2013-01-15 18:10:00,
2013-01-15 12:20:00,27.3,17.1,30.25,SSE,152,4.0,5.0,65,0.00,,,0.00,Wunderground v.1.15,2013-01-15 18:20:00,
2013-01-15 12:30:00,27.7,17.5,30.25,SSW,203,5.0,7.0,65,0.00,,,0.00,Wunderground v.1.15,2013-01-15 18:30:00,
2013-01-15 12:40:00,27.8,17.6,30.24,SW,219,4.0,4.0,65,0.00,,,0.00,Wunderground v.1.15,2013-01-15 18:40:00,
2013-01-15 12:50:00,28.4,17.0,30.24,SSW,207,3.0,7.0,62,0.00,,,0.00,Wunderground v.1.15,2013-01-15 18:50:00,
2013-01-15 13:00:00,28.8,17.0,30.23,West,260,4.0,5.0,61,0.00,,,0.00,Wunderground v.1.15,2013-01-15 19:00:00,
2013-01-15 13:10:00,29.7,17.1,30.23,SSW,207,4.0,4.0,59,0.00,,,0.00,Wunderground v.1.15,2013-01-15 19:10:00,
2013-01-15 13:20:00,29.2,16.6,30.22,WSW,251,5.0,6.0,59,0.00,,,0.00,Wunderground v.1.15,2013-01-15 19:20:00,
2013-01-15 13:30:00,29.0,16.4,30.22,South,174,5.0,5.0,59,0.00,,,0.00,Wunderground v.1.15,2013-01-15 19:30:00,
2013-01-15 13:40:00,29.1,16.9,30.22,SW,220,4.0,5.0,60,0.00,,,0.00,Wunderground v.1.15,2013-01-15 19:40:00,
2013-01-15 13:50:00,29.0,16.8,30.21,SSE,167,5.0,5.0,60,0.00,,,0.00,Wunderground v.1.15,2013-01-15 19:50:00,
2013-01-15 14:00:00,29.2,17.0,30.21,SSE,156,5.0,5.0,60,0.00,,,0.00,Wunderground v.1.15,2013-01-15 20:00:00,
2013-01-15 14:10:00,29.6,16.6,30.20,SSW,205,5.0,5.0,58,0.00,,,0.00,Wunderground v.1.15,2013-01-15 20:10:00,
2013-01-15 14:15:00,29.8,16.8,30.20,SW,226,6.0,8.0,58,0.00,,,0.00,Wunderground v.1.15,2013-01-15 20:15:00,
2013-01-15 14:20:00,29.8,16.8,30.20,SSW,195,6.0,7.0,58,0.00,,,0.00,Wunderground v.1.15,2013-01-15 20:20:00,
2013-01-15 14:30:00,30.1,16.7,30.20,SW,225,5.0,5.0,57,0.00,,,0.00,Wunderground v.1.15,2013-01-15 20:30:00,
2013-01-15 14:40:00,29.3,16.3,30.19,SSW,211,6.0,6.0,58,0.00,,,0.00,Wunderground v.1.15,2013-01-15 20:40:00,
2013-01-15 14:50:00,29.0,16.8,30.20,SW,217,5.0,5.0,60,0.00,,,0.00,Wunderground v.1.15,2013-01-15 20:50:00,
2013-01-15 14:55:00,28.9,17.1,30.19,SW,225,5.0,5.0,61,0.00,,,0.00,Wunderground v.1.15,2013-01-15 20:55:00,
2013-01-15 15:00:00,29.0,16.8,30.20,SSW,197,5.0,5.0,60,0.00,,,0.00,Wunderground v.1.15,2013-01-15 21:00:00,
2013-01-15 15:10:00,29.1,16.9,30.19,WSW,248,5.0,5.0,60,0.00,,,0.00,Wunderground v.1.15,2013-01-15 21:10:00,
2013-01-15 15:20:00,29.3,17.5,30.19,South,183,4.0,4.0,61,0.00,,,0.00,Wunderground v.1.15,2013-01-15 21:20:00,
2013-01-15 15:30:00,29.6,17.8,30.19,SW,215,3.0,3.0,61,0.00,,,0.00,Wunderground v.1.15,2013-01-15 21:30:00,
2013-01-15 15:40:00,29.3,17.5,30.19,SW,235,4.0,4.0,61,0.00,,,0.00,Wunderground v.1.15,2013-01-15 21:40:00,
2013-01-15 15:50:00,29.2,17.4,30.18,SW,225,5.0,8.0,61,0.00,,,0.00,Wunderground v.1.15,2013-01-15 21:50:00,
2013-01-15 16:00:00,28.8,17.0,30.18,WSW,250,5.0,5.0,61,0.00,,,0.00,Wunderground v.1.15,2013-01-15 22:00:00,
2013-01-15 16:05:00,28.7,16.9,30.18,WSW,252,5.0,9.0,61,0.00,,,0.00,Wunderground v.1.15,2013-01-15 22:05:00,
2013-01-15 16:15:00,28.6,17.2,30.18,West,263,5.0,5.0,62,0.00,,,0.00,Wunderground v.1.15,2013-01-15 22:15:00,
2013-01-15 16:25:00,28.6,17.2,30.18,WSW,244,5.0,6.0,62,0.00,,,0.00,Wunderground v.1.15,2013-01-15 22:25:00,
2013-01-15 16:30:00,28.4,17.0,30.18,SW,233,4.0,7.0,62,0.00,,,0.00,Wunderground v.1.15,2013-01-15 22:30:00,
2013-01-15 16:40:00,28.0,17.4,30.17,SW,221,3.0,3.0,64,0.00,,,0.00,Wunderground v.1.15,2013-01-15 22:40:00,
2013-01-15 16:50:00,27.7,17.1,30.17,South,173,3.0,5.0,64,0.00,,,0.00,Wunderground v.1.15,2013-01-15 22:50:00,
2013-01-15 17:00:00,27.4,16.8,30.16,SSW,213,3.0,4.0,64,0.00,,,0.00,Wunderground v.1.15,2013-01-15 23:00:00,
2013-01-15 17:10:00,27.2,17.0,30.16,SSW,196,3.0,3.0,65,0.00,,,0.00,Wunderground v.1.15,2013-01-15 23:10:00,
2013-01-15 17:15:00,27.0,16.8,30.16,SSW,209,3.0,4.0,65,0.00,,,0.00,Wunderground v.1.15,2013-01-15 23:15:00,
2013-01-15 17:25:00,26.8,17.0,30.15,SSW,212,3.0,6.0,66,0.00,,,0.00,Wunderground v.1.15,2013-01-15 23:25:00,
2013-01-15 17:35:00,26.5,16.7,30.15,SSW,194,3.0,4.0,66,0.00,,,0.00,Wunderground v.1.15,2013-01-15 23:35:00,
2013-01-15 17:45:00,26.5,16.7,30.15,SSW,207,4.0,4.0,66,0.00,,,0.00,Wunderground v.1.15,2013-01-15 23:45:00,
2013-01-15 17:50:00,26.3,16.8,30.15,SSW,202,4.0,4.0,67,0.00,,,0.00,Wunderground v.1.15,2013-01-15 23:50:00,
2013-01-15 18:00:00,25.9,17.1,30.15,South,171,4.0,4.0,69,0.00,,,0.00,Wunderground v.1.15,2013-01-16 00:00:00,
2013-01-15 18:10:00,25.6,16.8,30.15,SSW,195,4.0,7.0,69,0.00,,,0.00,Wunderground v.1.15,2013-01-16 00:10:00,
2013-01-15 18:15:00,25.6,17.2,30.15,South,183,5.0,7.0,70,0.00,,,0.00,Wunderground v.1.15,2013-01-16 00:15:00,
2013-01-15 18:25:00,25.4,17.0,30.14,SSW,197,4.0,5.0,70,0.00,,,0.00,Wunderground v.1.15,2013-01-16 00:25:00,
2013-01-15 18:30:00,25.2,16.8,30.14,SSW,198,4.0,7.0,70,0.00,,,0.00,Wunderground v.1.15,2013-01-16 00:30:00,
2013-01-15 18:35:00,25.2,16.8,30.14,South,183,4.0,7.0,70,0.00,,,0.00,Wunderground v.1.15,2013-01-16 00:35:00,
2013-01-15 18:45:00,25.0,16.9,30.14,SSW,208,4.0,6.0,71,0.00,,,0.00,Wunderground v.1.15,2013-01-16 00:45:00,
2013-01-15 18:50:00,24.9,16.8,30.14,SSW,205,5.0,5.0,71,0.00,,,0.00,Wunderground v.1.15,2013-01-16 00:50:00,
2013-01-15 19:00:00,24.8,16.7,30.13,SSW,201,5.0,5.0,71,0.00,,,0.00,Wunderground v.1.15,2013-01-16 01:00:00,
2013-01-15 19:10:00,24.8,16.7,30.13,SE,142,5.0,5.0,71,0.00,,,0.00,Wunderground v.1.15,2013-01-16 01:10:00,
2013-01-15 19:15:00,24.7,16.6,30.12,SE,141,5.0,5.0,71,0.00,,,0.00,Wunderground v.1.15,2013-01-16 01:15:00,
2013-01-15 19:25:00,24.4,16.3,30.12,South,170,4.0,4.0,71,0.00,,,0.00,Wunderground v.1.15,2013-01-16 01:25:00,
2013-01-15 19:35:00,24.5,16.4,30.11,SSW,212,6.0,6.0,71,0.00,,,0.00,Wunderground v.1.15,2013-01-16 01:35:00,
2013-01-15 19:45:00,24.7,16.3,30.11,SSW,202,6.0,6.0,70,0.00,,,0.00,Wunderground v.1.15,2013-01-16 01:45:00,
2013-01-15 19:55:00,24.6,16.2,30.10,South,191,6.0,6.0,70,0.00,,,0.00,Wunderground v.1.15,2013-01-16 01:55:00,
2013-01-15 20:00:00,24.5,16.4,30.10,SSW,205,6.0,6.0,71,0.00,,,0.00,Wunderground v.1.15,2013-01-16 02:00:00,
2013-01-15 20:10:00,24.3,16.2,30.09,South,189,5.0,6.0,71,0.00,,,0.00,Wunderground v.1.15,2013-01-16 02:10:00,
2013-01-15 20:15:00,24.2,16.1,30.09,SSW,196,5.0,6.0,71,0.00,,,0.00,Wunderground v.1.15,2013-01-16 02:15:00,
2013-01-15 20:25:00,24.0,16.3,30.09,SSW,194,5.0,7.0,72,0.00,,,0.00,Wunderground v.1.15,2013-01-16 02:25:00,
2013-01-15 20:30:00,23.8,16.1,30.09,SSW,198,5.0,5.0,72,0.00,,,0.00,Wunderground v.1.15,2013-01-16 02:30:00,
2013-01-15 20:40:00,23.5,16.1,30.08,South,171,4.0,5.0,73,0.00,,,0.00,Wunderground v.1.15,2013-01-16 02:40:00,
2013-01-15 20:45:00,23.4,16.0,30.08,South,178,4.0,5.0,73,0.00,,,0.00,Wunderground v.1.15,2013-01-16 02:45:00,
2013-01-15 20:55:00,23.0,15.9,30.08,SSW,200,4.0,6.0,74,0.00,,,0.00,Wunderground v.1.15,2013-01-16 02:55:00,
2013-01-15 21:00:00,22.8,15.8,30.07,South,178,4.0,4.0,74,0.00,,,0.00,Wunderground v.1.15,2013-01-16 03:00:00,
2013-01-15 21:10:00,22.7,15.7,30.07,SW,222,4.0,7.0,74,0.00,,,0.00,Wunderground v.1.15,2013-01-16 03:10:00,
2013-01-15 21:20:00,22.3,15.6,30.06,South,177,4.0,4.0,75,0.00,,,0.00,Wunderground v.1.15,2013-01-16 03:20:00,
2013-01-15 21:30:00,22.0,15.6,30.06,South,173,4.0,5.0,76,0.00,,,0.00,Wunderground v.1.15,2013-01-16 03:30:00,
2013-01-15 21:40:00,21.7,15.3,30.05,South,182,4.0,6.0,76,0.00,,,0.00,Wunderground v.1.15,2013-01-16 03:40:00,
2013-01-15 21:45:00,21.6,15.2,30.05,SSE,167,4.0,6.0,76,0.00,,,0.00,Wunderground v.1.15,2013-01-16 03:45:00,
2013-01-15 21:55:00,21.1,15.0,30.04,South,182,3.0,4.0,77,0.00,,,0.00,Wunderground v.1.15,2013-01-16 03:55:00,
2013-01-15 22:00:00,20.9,15.1,30.04,SSW,192,3.0,3.0,78,0.00,,,0.00,Wunderground v.1.15,2013-01-16 04:00:00,
2013-01-15 22:10:00,20.6,14.8,30.03,South,178,4.0,5.0,78,0.00,,,0.00,Wunderground v.1.15,2013-01-16 04:10:00,
2013-01-15 22:15:00,20.6,15.1,30.03,SSE,162,4.0,5.0,79,0.00,,,0.00,Wunderground v.1.15,2013-01-16 04:15:00,
2013-01-15 22:25:00,20.3,14.8,30.03,SSW,209,4.0,4.0,79,0.00,,,0.00,Wunderground v.1.15,2013-01-16 04:25:00,
2013-01-15 22:35:00,20.1,14.9,30.02,SSW,192,4.0,4.0,80,0.00,,,0.00,Wunderground v.1.15,2013-01-16 04:35:00,
2013-01-15 22:45:00,20.1,14.9,30.02,South,184,4.0,7.0,80,0.00,,,0.00,Wunderground v.1.15,2013-01-16 04:45:00,
2013-01-15 22:55:00,20.1,14.9,30.01,SW,234,4.0,6.0,80,0.00,,,0.00,Wunderground v.1.15,2013-01-16 04:55:00,
2013-01-15 23:00:00,20.0,14.8,30.01,South,183,4.0,4.0,80,0.00,,,0.00,Wunderground v.1.15,2013-01-16 05:00:00,
2013-01-15 23:05:00,20.0,14.8,30.00,SSW,203,4.0,5.0,80,0.00,,,0.00,Wunderground v.1.15,2013-01-16 05:05:00,
2013-01-15 23:10:00,20.0,14.8,30.00,SW,223,4.0,4.0,80,0.00,,,0.00,Wunderground v.1.15,2013-01-16 05:10:00,
2013-01-15 23:20:00,20.0,14.8,29.99,SW,218,4.0,6.0,80,0.00,,,0.00,Wunderground v.1.15,2013-01-16 05:20:00,
2013-01-15 23:30:00,20.0,14.8,29.99,South,184,5.0,5.0,80,0.00,,,0.00,Wunderground v.1.15,2013-01-16 05:30:00,
2013-01-15 23:35:00,19.9,14.7,29.98,South,190,4.0,5.0,80,0.00,,,0.00,Wunderground v.1.15,2013-01-16 05:35:00,
2013-01-15 23:45:00,19.8,14.6,29.97,South,188,4.0,5.0,80,0.00,,,0.00,Wunderground v.1.15,2013-01-16 05:45:00,
2013-01-15 23:50:00,19.8,14.6,29.97,SSW,195,4.0,4.0,80,0.00,,,0.00,Wunderground v.1.15,2013-01-16 05:50:00,
2013-01-15 23:55:00,19.9,14.7,29.96,SSW,195,5.0,7.0,80,0.00,,,0.00,Wunderground v.1.15,2013-01-16 05:55:00,